Time;durP1;ratioP1;P1;durP2;ratioP2;P2;SDS_P1;SDS_P2;PMS_P1;PMS_P2;Temp;Humidity;BMP_temperature;BMP_pressure;BME280_temperature;BME280_humidity;BME280_pressure;Samples;Min_cycle;Max_cycle;Signal;HPM_P1;HPM_P2
2023/04/16 13:44:05;;;;;;;2.63;2.35;;;;;;;;;;4890108;29;20133;-91
2023/04/16 13:46:30;;;;;;;2.20;2.00;;;;;;;;;;4883443;29;20393;-91
2023/04/16 13:48:56;;;;;;;2.63;2.03;;;;;;;;;;4883039;29;20029;-89
2023/04/16 13:51:22;;;;;;;2.00;1.80;;;;;;;;;;4882986;29;20520;-90
2023/04/16 13:53:47;;;;;;;3.80;2.58;;;;;;;;;;4881609;29;20029;-89
2023/04/16 13:56:13;;;;;;;3.90;2.03;;;;;;;;;;4883125;29;20025;-87
2023/04/16 13:58:39;;;;;;;2.70;2.40;;;;;;;;;;4882895;29;20056;-88
2023/04/16 14:01:05;;;;;;;4.55;3.20;;;;;;;;;;4882822;29;20092;-88
2023/04/16 14:03:40;;;;;;;3.60;2.90;;;;;;;;;;4881746;29;20425;-89
2023/04/16 14:06:06;;;;;;;2.90;2.70;;;;;;;;;;4882553;29;20040;-88
2023/04/16 14:08:31;;;;;;;3.42;2.72;;;;;;;;;;4881645;29;20033;-89
2023/04/16 14:10:57;;;;;;;2.80;2.38;;;;;;;;;;4882683;29;20144;-89
2023/04/16 14:13:23;;;;;;;3.47;2.58;;;;;;;;;;4897305;29;20060;-89
2023/04/16 14:15:49;;;;;;;3.05;2.55;;;;;;;;;;4897040;29;20033;-89
2023/04/16 17:19:10;;;;;;;4.75;3.80;;;;;;;;;;4916610;29;20123;-79
2023/04/16 17:21:36;;;;;;;7.75;4.47;;;;;;;;;;4921044;29;20044;-80
2023/04/16 17:24:01;;;;;;;6.22;3.92;;;;;;;;;;4921031;29;20043;-79
2023/04/16 17:26:27;;;;;;;4.47;3.05;;;;;;;;;;4921112;29;20391;-79
2023/04/16 17:28:53;;;;;;;4.63;3.40;;;;;;;;;;4921181;29;20483;-78
2023/04/16 17:31:18;;;;;;;4.07;3.28;;;;;;;;;;4921314;29;20036;-79
2023/04/16 17:33:44;;;;;;;4.18;3.17;;;;;;;;;;4920622;29;20090;-79
2023/04/16 17:36:09;;;;;;;5.28;3.20;;;;;;;;;;4924619;29;20028;-78
2023/04/16 17:38:35;;;;;;;5.88;3.90;;;;;;;;;;4934323;29;20394;-78
2023/04/16 17:41:00;;;;;;;5.38;3.63;;;;;;;;;;4940051;29;20032;-80
2023/04/16 17:43:27;;;;;;;4.70;3.20;;;;;;;;;;4940093;29;20387;-77
2023/04/16 17:45:52;;;;;;;5.72;3.30;;;;;;;;;;4939617;29;20035;-81
2023/04/16 17:48:18;;;;;;;5.65;3.50;;;;;;;;;;4931709;29;20024;-80
2023/04/16 17:50:43;;;;;;;5.00;3.42;;;;;;;;;;4920209;29;20024;-77
2023/04/16 17:53:09;;;;;;;4.43;3.30;;;;;;;;;;4930020;29;20464;-84
2023/04/16 17:55:35;;;;;;;10.82;7.88;;;;;;;;;;4931806;29;20039;-78
2023/04/16 17:58:02;;;;;;;9.50;6.90;;;;;;;;;;4929431;29;20028;-81
2023/04/16 18:00:28;;;;;;;9.07;5.80;;;;;;;;;;4922374;29;20443;-79
2023/04/16 18:02:55;;;;;;;5.97;4.30;;;;;;;;;;4920596;29;20035;-78
2023/04/16 18:05:21;;;;;;;7.28;4.53;;;;;;;;;;4920476;29;20028;-79
2023/04/16 18:07:47;;;;;;;4.97;4.00;;;;;;;;;;4920656;29;20499;-84
2023/04/16 18:10:12;;;;;;;6.47;3.67;;;;;;;;;;4920600;29;20039;-79
2023/04/16 18:12:38;;;;;;;5.00;3.70;;;;;;;;;;4920699;29;20039;-79
2023/04/16 18:15:05;;;;;;;38.65;17.55;;;;;;;;;;4920704;29;20032;-84
2023/04/16 18:17:31;;;;;;;81.32;35.88;;;;;;;;;;4924633;29;20399;-78
2023/04/16 18:19:56;;;;;;;33.35;15.95;;;;;;;;;;4940121;29;20032;-80
2023/04/16 18:22:22;;;;;;;11.30;6.80;;;;;;;;;;4940666;29;20046;-79
2023/04/16 18:24:47;;;;;;;6.90;4.13;;;;;;;;;;4948872;29;20031;-79
2023/04/16 18:27:12;;;;;;;5.95;4.20;;;;;;;;;;4940994;29;20019;-79
2023/04/16 18:29:38;;;;;;;10.25;5.95;;;;;;;;;;4951619;28;20027;-79
2023/04/16 18:32:04;;;;;;;10.07;5.90;;;;;;;;;;4948208;29;20024;-79
2023/04/16 18:34:30;;;;;;;4.70;3.45;;;;;;;;;;4949529;28;20035;-80
2023/04/16 18:36:55;;;;;;;4.35;3.60;;;;;;;;;;4931422;29;20028;-79
2023/04/16 18:39:21;;;;;;;5.85;3.50;;;;;;;;;;4947663;29;20470;-81
2023/04/16 18:41:46;;;;;;;4.15;3.30;;;;;;;;;;4938529;29;20103;-80
2023/04/16 18:44:13;;;;;;;4.10;2.90;;;;;;;;;;4947312;28;20111;-82
2023/04/16 18:46:39;;;;;;;7.78;6.75;;;;;;;;;;4947346;29;20429;-81
2023/04/16 18:49:06;;;;;;;6.55;5.85;;;;;;;;;;4931641;29;20367;-80
2023/04/16 18:51:31;;;;;;;6.82;6.15;;;;;;;;;;4938298;29;20471;-79
2023/04/16 18:53:57;;;;;;;6.80;5.13;;;;;;;;;;4921007;29;20031;-81
2023/04/16 18:56:22;;;;;;;5.78;4.70;;;;;;;;;;4938306;29;20047;-82
2023/04/16 18:58:48;;;;;;;6.35;5.68;;;;;;;;;;4938233;29;20475;-81
2023/04/16 19:01:13;;;;;;;5.57;4.13;;;;;;;;;;4938308;29;20493;-81
2023/04/16 19:03:39;;;;;;;4.93;3.65;;;;;;;;;;4921114;29;20032;-81
2023/04/16 19:06:05;;;;;;;4.10;3.33;;;;;;;;;;4938095;29;20035;-81
2023/04/16 19:08:30;;;;;;;5.85;4.15;;;;;;;;;;4938174;29;20445;-81
2023/04/16 19:10:56;;;;;;;8.73;5.32;;;;;;;;;;4938412;29;20107;-80
2023/04/16 19:13:21;;;;;;;29.42;20.65;;;;;;;;;;4938413;29;20027;-81
2023/04/16 19:15:47;;;;;;;33.97;22.88;;;;;;;;;;4920741;29;20035;-82
2023/04/16 19:18:12;;;;;;;26.48;19.25;;;;;;;;;;4937867;29;20127;-80
2023/04/16 19:20:38;;;;;;;19.30;13.82;;;;;;;;;;4938012;29;20040;-82
2023/04/16 19:23:04;;;;;;;8.93;6.63;;;;;;;;;;4938125;29;20042;-80
2023/04/16 19:25:33;;;;;;;8.10;4.82;;;;;;;;;;4937764;29;20041;-81
2023/04/16 19:27:59;;;;;;;6.68;3.75;;;;;;;;;;4937988;29;20079;-82
2023/04/16 19:30:25;;;;;;;9.35;6.07;;;;;;;;;;4937981;29;20031;-81
